sensor_id;sensor_type;location;lat;lon;timestamp;temperature;humidity
76878;DHT22;65843;50.692;12.844;2024-03-08T00:00:58;21.50;50.00
76878;DHT22;65843;50.692;12.844;2024-03-08T00:01:59;21.50;50.00
76878;DHT22;65843;50.692;12.844;2024-03-08T00:03:00;21.50;50.20
76878;DHT22;65843;50.692;12.844;2024-03-08T00:04:03;21.50;50.10
76878;DHT22;65843;50.692;12.844;2024-03-08T00:05:05;21.50;50.30
76878;DHT22;65843;50.692;12.844;2024-03-08T00:06:06;21.50;50.20
76878;DHT22;65843;50.692;12.844;2024-03-08T00:07:06;21.50;50.30
76878;DHT22;65843;50.692;12.844;2024-03-08T00:08:07;21.50;50.40
76878;DHT22;65843;50.692;12.844;2024-03-08T00:09:10;21.50;50.40
76878;DHT22;65843;50.692;12.844;2024-03-08T00:10:11;21.50;50.40
76878;DHT22;65843;50.692;12.844;2024-03-08T00:11:13;21.50;50.60
76878;DHT22;65843;50.692;12.844;2024-03-08T00:12:14;21.50;50.60
76878;DHT22;65843;50.692;12.844;2024-03-08T00:13:14;21.50;50.70
76878;DHT22;65843;50.692;12.844;2024-03-08T00:14:15;21.50;50.70
76878;DHT22;65843;50.692;12.844;2024-03-08T00:15:16;21.50;50.70
76878;DHT22;65843;50.692;12.844;2024-03-08T00:16:17;21.50;50.70
76878;DHT22;65843;50.692;12.844;2024-03-08T00:17:20;21.50;50.80
76878;DHT22;65843;50.692;12.844;2024-03-08T00:18:23;21.50;50.90
76878;DHT22;65843;50.692;12.844;2024-03-08T00:19:24;21.50;50.80
76878;DHT22;65843;50.692;12.844;2024-03-08T00:20:24;21.50;51.10
76878;DHT22;65843;50.692;12.844;2024-03-08T00:21:25;21.50;51.40
76878;DHT22;65843;50.692;12.844;2024-03-08T00:22:27;21.50;51.00
76878;DHT22;65843;50.692;12.844;2024-03-08T00:23:31;21.50;51.00
76878;DHT22;65843;50.692;12.844;2024-03-08T00:24:34;21.50;51.20
76878;DHT22;65843;50.692;12.844;2024-03-08T00:25:34;21.50;51.20
76878;DHT22;65843;50.692;12.844;2024-03-08T00:26:36;21.50;51.20
76878;DHT22;65843;50.692;12.844;2024-03-08T00:27:37;21.50;51.20
76878;DHT22;65843;50.692;12.844;2024-03-08T00:28:38;21.50;51.20
76878;DHT22;65843;50.692;12.844;2024-03-08T00:29:39;21.50;51.50
76878;DHT22;65843;50.692;12.844;2024-03-08T00:30:40;21.50;51.30
76878;DHT22;65843;50.692;12.844;2024-03-08T00:31:41;21.50;51.30
76878;DHT22;65843;50.692;12.844;2024-03-08T00:32:42;21.50;51.20
76878;DHT22;65843;50.692;12.844;2024-03-08T00:33:43;21.50;51.40
76878;DHT22;65843;50.692;12.844;2024-03-08T00:34:43;21.50;51.40
76878;DHT22;65843;50.692;12.844;2024-03-08T00:35:44;21.50;51.20
76878;DHT22;65843;50.692;12.844;2024-03-08T00:36:45;21.50;51.20
76878;DHT22;65843;50.692;12.844;2024-03-08T00:37:46;21.50;51.40
76878;DHT22;65843;50.692;12.844;2024-03-08T00:38:47;21.40;51.20
76878;DHT22;65843;50.692;12.844;2024-03-08T00:39:48;21.40;51.20
76878;DHT22;65843;50.692;12.844;2024-03-08T00:40:50;21.40;51.20
76878;DHT22;65843;50.692;12.844;2024-03-08T00:41:51;21.50;51.20
76878;DHT22;65843;50.692;12.844;2024-03-08T00:42:52;21.50;51.20
76878;DHT22;65843;50.692;12.844;2024-03-08T00:43:53;21.50;51.10
76878;DHT22;65843;50.692;12.844;2024-03-08T00:44:54;21.50;51.70
76878;DHT22;65843;50.692;12.844;2024-03-08T00:45:55;21.50;51.30
76878;DHT22;65843;50.692;12.844;2024-03-08T00:46:56;21.50;51.50
76878;DHT22;65843;50.692;12.844;2024-03-08T00:47:59;21.50;51.50
76878;DHT22;65843;50.692;12.844;2024-03-08T00:49:01;21.50;51.20
76878;DHT22;65843;50.692;12.844;2024-03-08T00:50:02;21.50;51.00
76878;DHT22;65843;50.692;12.844;2024-03-08T00:51:04;21.50;51.00
76878;DHT22;65843;50.692;12.844;2024-03-08T00:52:05;21.50;50.80
76878;DHT22;65843;50.692;12.844;2024-03-08T00:53:09;21.50;51.20
76878;DHT22;65843;50.692;12.844;2024-03-08T00:54:11;21.50;51.50
76878;DHT22;65843;50.692;12.844;2024-03-08T00:55:12;21.50;51.30
76878;DHT22;65843;50.692;12.844;2024-03-08T00:56:13;21.50;51.30
76878;DHT22;65843;50.692;12.844;2024-03-08T00:57:14;21.50;51.50
76878;DHT22;65843;50.692;12.844;2024-03-08T00:58:15;21.50;51.40
76878;DHT22;65843;50.692;12.844;2024-03-08T00:59:16;21.50;51.70
76878;DHT22;65843;50.692;12.844;2024-03-08T01:00:17;21.50;51.60
76878;DHT22;65843;50.692;12.844;2024-03-08T01:01:18;21.50;51.40
76878;DHT22;65843;50.692;12.844;2024-03-08T01:02:19;21.50;51.40
76878;DHT22;65843;50.692;12.844;2024-03-08T01:03:20;21.50;51.40
76878;DHT22;65843;50.692;12.844;2024-03-08T01:04:21;21.50;51.70
76878;DHT22;65843;50.692;12.844;2024-03-08T01:05:23;21.50;51.40
76878;DHT22;65843;50.692;12.844;2024-03-08T01:06:25;21.50;51.40
76878;DHT22;65843;50.692;12.844;2024-03-08T01:07:25;21.50;51.50
76878;DHT22;65843;50.692;12.844;2024-03-08T01:08:27;21.50;51.50
76878;DHT22;65843;50.692;12.844;2024-03-08T01:09:28;21.50;51.60
76878;DHT22;65843;50.692;12.844;2024-03-08T01:10:29;21.50;51.30
76878;DHT22;65843;50.692;12.844;2024-03-08T01:11:29;21.50;51.50
76878;DHT22;65843;50.692;12.844;2024-03-08T01:12:30;21.50;51.70
76878;DHT22;65843;50.692;12.844;2024-03-08T01:13:31;21.50;51.60
76878;DHT22;65843;50.692;12.844;2024-03-08T01:14:32;21.50;51.60
76878;DHT22;65843;50.692;12.844;2024-03-08T01:15:33;21.50;51.50
76878;DHT22;65843;50.692;12.844;2024-03-08T01:16:34;21.50;51.40
76878;DHT22;65843;50.692;12.844;2024-03-08T01:17:35;21.50;51.50
76878;DHT22;65843;50.692;12.844;2024-03-08T01:18:36;21.50;51.70
76878;DHT22;65843;50.692;12.844;2024-03-08T01:19:37;21.50;51.80
76878;DHT22;65843;50.692;12.844;2024-03-08T01:20:38;21.50;51.50
76878;DHT22;65843;50.692;12.844;2024-03-08T01:21:41;21.40;51.70
76878;DHT22;65843;50.692;12.844;2024-03-08T01:22:41;21.50;51.60
76878;DHT22;65843;50.692;12.844;2024-03-08T01:23:42;21.40;51.60
76878;DHT22;65843;50.692;12.844;2024-03-08T01:24:43;21.50;51.50
76878;DHT22;65843;50.692;12.844;2024-03-08T01:25:44;21.40;51.60
76878;DHT22;65843;50.692;12.844;2024-03-08T01:26:45;21.40;51.60
76878;DHT22;65843;50.692;12.844;2024-03-08T01:27:46;21.40;51.70
76878;DHT22;65843;50.692;12.844;2024-03-08T01:28:47;21.40;51.50
76878;DHT22;65843;50.692;12.844;2024-03-08T01:29:48;21.40;51.50
76878;DHT22;65843;50.692;12.844;2024-03-08T01:30:49;21.40;51.60
76878;DHT22;65843;50.692;12.844;2024-03-08T01:31:50;21.40;51.70
76878;DHT22;65843;50.692;12.844;2024-03-08T01:32:53;21.40;51.50
76878;DHT22;65843;50.692;12.844;2024-03-08T01:33:54;21.40;51.70
76878;DHT22;65843;50.692;12.844;2024-03-08T01:34:54;21.40;51.70
76878;DHT22;65843;50.692;12.844;2024-03-08T01:35:55;21.40;51.60
76878;DHT22;65843;50.692;12.844;2024-03-08T01:36:57;21.40;51.70
76878;DHT22;65843;50.692;12.844;2024-03-08T01:37:58;21.40;51.80
76878;DHT22;65843;50.692;12.844;2024-03-08T01:38:59;21.40;51.80
76878;DHT22;65843;50.692;12.844;2024-03-08T01:40:00;21.40;51.70
76878;DHT22;65843;50.692;12.844;2024-03-08T01:41:01;21.40;51.90
76878;DHT22;65843;50.692;12.844;2024-03-08T01:42:01;21.40;51.80
76878;DHT22;65843;50.692;12.844;2024-03-08T01:43:16;21.40;51.70
76878;DHT22;65843;50.692;12.844;2024-03-08T01:44:17;21.40;51.90
76878;DHT22;65843;50.692;12.844;2024-03-08T01:45:19;21.40;52.00
76878;DHT22;65843;50.692;12.844;2024-03-08T01:46:20;21.40;51.80
76878;DHT22;65843;50.692;12.844;2024-03-08T01:47:22;21.40;51.80
76878;DHT22;65843;50.692;12.844;2024-03-08T01:48:23;21.40;51.90
76878;DHT22;65843;50.692;12.844;2024-03-08T01:49:24;21.40;52.00
76878;DHT22;65843;50.692;12.844;2024-03-08T01:50:26;21.50;52.10
76878;DHT22;65843;50.692;12.844;2024-03-08T01:51:28;21.40;52.00
76878;DHT22;65843;50.692;12.844;2024-03-08T01:52:29;21.40;52.20
76878;DHT22;65843;50.692;12.844;2024-03-08T01:53:32;21.50;52.10
76878;DHT22;65843;50.692;12.844;2024-03-08T01:54:33;21.50;52.10
76878;DHT22;65843;50.692;12.844;2024-03-08T01:55:34;21.40;51.90
76878;DHT22;65843;50.692;12.844;2024-03-08T01:56:36;21.40;52.20
76878;DHT22;65843;50.692;12.844;2024-03-08T01:57:38;21.40;52.00
76878;DHT22;65843;50.692;12.844;2024-03-08T01:58:40;21.50;52.20
76878;DHT22;65843;50.692;12.844;2024-03-08T01:59:42;21.50;52.20
76878;DHT22;65843;50.692;12.844;2024-03-08T02:00:44;21.50;52.20
76878;DHT22;65843;50.692;12.844;2024-03-08T02:01:45;21.40;52.30
76878;DHT22;65843;50.692;12.844;2024-03-08T02:02:46;21.50;52.10
76878;DHT22;65843;50.692;12.844;2024-03-08T02:03:47;21.50;52.20
76878;DHT22;65843;50.692;12.844;2024-03-08T02:04:48;21.50;51.90
76878;DHT22;65843;50.692;12.844;2024-03-08T02:05:49;21.50;52.00
76878;DHT22;65843;50.692;12.844;2024-03-08T02:06:50;21.50;52.20
76878;DHT22;65843;50.692;12.844;2024-03-08T02:07:52;21.50;52.50
76878;DHT22;65843;50.692;12.844;2024-03-08T02:08:53;21.50;52.20
76878;DHT22;65843;50.692;12.844;2024-03-08T02:09:54;21.50;52.50
76878;DHT22;65843;50.692;12.844;2024-03-08T02:10:54;21.50;52.70
76878;DHT22;65843;50.692;12.844;2024-03-08T02:11:55;21.50;52.20
76878;DHT22;65843;50.692;12.844;2024-03-08T02:12:56;21.50;52.00
76878;DHT22;65843;50.692;12.844;2024-03-08T02:13:57;21.50;52.20
76878;DHT22;65843;50.692;12.844;2024-03-08T02:14:58;21.50;52.00
76878;DHT22;65843;50.692;12.844;2024-03-08T02:16:00;21.50;51.90
76878;DHT22;65843;50.692;12.844;2024-03-08T02:17:01;21.50;52.00
76878;DHT22;65843;50.692;12.844;2024-03-08T02:18:02;21.50;51.60
76878;DHT22;65843;50.692;12.844;2024-03-08T02:19:03;21.50;52.00
76878;DHT22;65843;50.692;12.844;2024-03-08T02:20:03;21.50;51.80
76878;DHT22;65843;50.692;12.844;2024-03-08T02:21:05;21.50;51.90
76878;DHT22;65843;50.692;12.844;2024-03-08T02:22:08;21.50;51.70
76878;DHT22;65843;50.692;12.844;2024-03-08T02:23:09;21.50;51.40
76878;DHT22;65843;50.692;12.844;2024-03-08T02:24:10;21.50;51.50
76878;DHT22;65843;50.692;12.844;2024-03-08T02:25:11;21.50;51.70
76878;DHT22;65843;50.692;12.844;2024-03-08T02:26:12;21.50;52.00
76878;DHT22;65843;50.692;12.844;2024-03-08T02:27:13;21.50;51.80
76878;DHT22;65843;50.692;12.844;2024-03-08T02:28:14;21.50;51.70
76878;DHT22;65843;50.692;12.844;2024-03-08T02:29:15;21.50;51.80
76878;DHT22;65843;50.692;12.844;2024-03-08T02:30:16;21.50;51.90
76878;DHT22;65843;50.692;12.844;2024-03-08T02:31:18;21.50;51.90
76878;DHT22;65843;50.692;12.844;2024-03-08T02:32:19;21.50;51.90
76878;DHT22;65843;50.692;12.844;2024-03-08T02:33:20;21.50;52.00
76878;DHT22;65843;50.692;12.844;2024-03-08T02:34:20;21.50;52.00
76878;DHT22;65843;50.692;12.844;2024-03-08T02:35:21;21.50;51.90
76878;DHT22;65843;50.692;12.844;2024-03-08T02:36:22;21.50;51.90
76878;DHT22;65843;50.692;12.844;2024-03-08T02:37:23;21.50;52.10
76878;DHT22;65843;50.692;12.844;2024-03-08T02:38:24;21.50;51.80
76878;DHT22;65843;50.692;12.844;2024-03-08T02:39:25;21.50;51.90
76878;DHT22;65843;50.692;12.844;2024-03-08T02:40:26;21.50;52.00
76878;DHT22;65843;50.692;12.844;2024-03-08T02:41:27;21.50;52.10
76878;DHT22;65843;50.692;12.844;2024-03-08T02:42:28;21.50;52.20
76878;DHT22;65843;50.692;12.844;2024-03-08T02:43:28;21.50;52.00
76878;DHT22;65843;50.692;12.844;2024-03-08T02:44:29;21.50;52.20
76878;DHT22;65843;50.692;12.844;2024-03-08T02:45:30;21.50;52.10
76878;DHT22;65843;50.692;12.844;2024-03-08T02:46:31;21.50;52.30
76878;DHT22;65843;50.692;12.844;2024-03-08T02:47:32;21.50;52.20
76878;DHT22;65843;50.692;12.844;2024-03-08T02:48:33;21.40;52.50
76878;DHT22;65843;50.692;12.844;2024-03-08T02:49:34;21.40;52.40
76878;DHT22;65843;50.692;12.844;2024-03-08T02:50:35;21.40;52.40
76878;DHT22;65843;50.692;12.844;2024-03-08T02:51:36;21.50;52.50
76878;DHT22;65843;50.692;12.844;2024-03-08T02:52:37;21.40;52.50
76878;DHT22;65843;50.692;12.844;2024-03-08T02:53:38;21.40;52.30
76878;DHT22;65843;50.692;12.844;2024-03-08T02:54:39;21.40;52.30
76878;DHT22;65843;50.692;12.844;2024-03-08T02:55:40;21.40;52.50
76878;DHT22;65843;50.692;12.844;2024-03-08T02:56:41;21.40;51.80
76878;DHT22;65843;50.692;12.844;2024-03-08T02:57:42;21.50;52.60
76878;DHT22;65843;50.692;12.844;2024-03-08T02:58:44;21.50;52.20
76878;DHT22;65843;50.692;12.844;2024-03-08T02:59:49;21.50;52.10
76878;DHT22;65843;50.692;12.844;2024-03-08T03:00:49;21.50;52.40
76878;DHT22;65843;50.692;12.844;2024-03-08T03:01:50;21.50;52.70
76878;DHT22;65843;50.692;12.844;2024-03-08T03:02:51;21.50;52.00
76878;DHT22;65843;50.692;12.844;2024-03-08T03:03:54;21.50;51.90
76878;DHT22;65843;50.692;12.844;2024-03-08T03:04:55;21.50;52.00
76878;DHT22;65843;50.692;12.844;2024-03-08T03:05:56;21.50;52.20
76878;DHT22;65843;50.692;12.844;2024-03-08T03:06:57;21.50;52.20
76878;DHT22;65843;50.692;12.844;2024-03-08T03:07:58;21.50;52.30
76878;DHT22;65843;50.692;12.844;2024-03-08T03:08:59;21.50;52.30
76878;DHT22;65843;50.692;12.844;2024-03-08T03:10:00;21.50;52.20
76878;DHT22;65843;50.692;12.844;2024-03-08T03:11:01;21.50;52.20
76878;DHT22;65843;50.692;12.844;2024-03-08T03:12:02;21.50;52.30
76878;DHT22;65843;50.692;12.844;2024-03-08T03:13:03;21.50;52.10
76878;DHT22;65843;50.692;12.844;2024-03-08T03:14:05;21.50;52.10
76878;DHT22;65843;50.692;12.844;2024-03-08T03:15:07;21.50;52.30
76878;DHT22;65843;50.692;12.844;2024-03-08T03:16:08;21.50;52.10
76878;DHT22;65843;50.692;12.844;2024-03-08T03:17:10;21.50;52.10
76878;DHT22;65843;50.692;12.844;2024-03-08T03:18:11;21.50;52.20
76878;DHT22;65843;50.692;12.844;2024-03-08T03:19:12;21.50;52.30
76878;DHT22;65843;50.692;12.844;2024-03-08T03:20:13;21.50;52.20
76878;DHT22;65843;50.692;12.844;2024-03-08T03:21:14;21.50;52.20
76878;DHT22;65843;50.692;12.844;2024-03-08T03:22:15;21.50;52.20
76878;DHT22;65843;50.692;12.844;2024-03-08T03:23:16;21.50;52.20
76878;DHT22;65843;50.692;12.844;2024-03-08T03:24:21;21.50;52.20
76878;DHT22;65843;50.692;12.844;2024-03-08T03:25:22;21.50;52.00
76878;DHT22;65843;50.692;12.844;2024-03-08T03:26:38;21.50;52.10
76878;DHT22;65843;50.692;12.844;2024-03-08T03:27:42;21.40;52.20
76878;DHT22;65843;50.692;12.844;2024-03-08T03:28:43;21.50;52.10
76878;DHT22;65843;50.692;12.844;2024-03-08T03:29:49;21.40;52.10
76878;DHT22;65843;50.692;12.844;2024-03-08T03:30:51;21.40;52.10
76878;DHT22;65843;50.692;12.844;2024-03-08T03:31:53;21.40;52.20
76878;DHT22;65843;50.692;12.844;2024-03-08T03:32:54;21.40;52.40
76878;DHT22;65843;50.692;12.844;2024-03-08T03:33:57;21.40;52.40
76878;DHT22;65843;50.692;12.844;2024-03-08T03:35:04;21.40;52.50
76878;DHT22;65843;50.692;12.844;2024-03-08T03:36:06;21.40;52.50
76878;DHT22;65843;50.692;12.844;2024-03-08T03:37:09;21.40;52.30
76878;DHT22;65843;50.692;12.844;2024-03-08T03:38:13;21.40;52.40
76878;DHT22;65843;50.692;12.844;2024-03-08T03:39:14;21.40;52.30
76878;DHT22;65843;50.692;12.844;2024-03-08T03:40:17;21.40;52.50
76878;DHT22;65843;50.692;12.844;2024-03-08T03:41:19;21.40;52.40
76878;DHT22;65843;50.692;12.844;2024-03-08T03:42:20;21.40;52.40
76878;DHT22;65843;50.692;12.844;2024-03-08T03:43:21;21.40;52.50
76878;DHT22;65843;50.692;12.844;2024-03-08T03:44:22;21.40;52.60
76878;DHT22;65843;50.692;12.844;2024-03-08T03:45:24;21.40;52.60
76878;DHT22;65843;50.692;12.844;2024-03-08T03:46:25;21.40;52.40
76878;DHT22;65843;50.692;12.844;2024-03-08T03:47:27;21.40;52.30
76878;DHT22;65843;50.692;12.844;2024-03-08T03:48:28;21.40;52.40
76878;DHT22;65843;50.692;12.844;2024-03-08T03:49:29;21.40;52.30
76878;DHT22;65843;50.692;12.844;2024-03-08T03:50:30;21.40;52.50
76878;DHT22;65843;50.692;12.844;2024-03-08T03:51:31;21.40;52.40
76878;DHT22;65843;50.692;12.844;2024-03-08T03:52:31;21.40;52.30
76878;DHT22;65843;50.692;12.844;2024-03-08T03:53:32;21.40;52.30
76878;DHT22;65843;50.692;12.844;2024-03-08T03:54:33;21.40;52.40
76878;DHT22;65843;50.692;12.844;2024-03-08T03:55:34;21.40;52.30
76878;DHT22;65843;50.692;12.844;2024-03-08T03:56:35;21.40;52.30
76878;DHT22;65843;50.692;12.844;2024-03-08T03:57:36;21.50;52.30
76878;DHT22;65843;50.692;12.844;2024-03-08T03:58:37;21.50;52.20
76878;DHT22;65843;50.692;12.844;2024-03-08T03:59:40;21.50;52.30
76878;DHT22;65843;50.692;12.844;2024-03-08T04:00:41;21.50;52.10
76878;DHT22;65843;50.692;12.844;2024-03-08T04:01:42;21.50;51.80
76878;DHT22;65843;50.692;12.844;2024-03-08T04:02:43;21.50;51.70
76878;DHT22;65843;50.692;12.844;2024-03-08T04:03:44;21.50;51.90
76878;DHT22;65843;50.692;12.844;2024-03-08T04:04:46;21.50;51.60
76878;DHT22;65843;50.692;12.844;2024-03-08T04:05:46;21.50;51.70
76878;DHT22;65843;50.692;12.844;2024-03-08T04:06:47;21.50;51.90
76878;DHT22;65843;50.692;12.844;2024-03-08T04:07:48;21.50;52.10
76878;DHT22;65843;50.692;12.844;2024-03-08T04:08:49;21.50;51.90
76878;DHT22;65843;50.692;12.844;2024-03-08T04:09:50;21.50;51.70
76878;DHT22;65843;50.692;12.844;2024-03-08T04:10:50;21.50;52.20
76878;DHT22;65843;50.692;12.844;2024-03-08T04:11:51;21.50;51.70
76878;DHT22;65843;50.692;12.844;2024-03-08T04:12:53;21.50;51.10
76878;DHT22;65843;50.692;12.844;2024-03-08T04:13:54;21.50;51.30
76878;DHT22;65843;50.692;12.844;2024-03-08T04:14:55;21.50;51.30
76878;DHT22;65843;50.692;12.844;2024-03-08T04:15:56;21.50;51.30
76878;DHT22;65843;50.692;12.844;2024-03-08T04:16:57;21.50;52.90
76878;DHT22;65843;50.692;12.844;2024-03-08T04:17:58;21.50;53.00
76878;DHT22;65843;50.692;12.844;2024-03-08T04:19:00;21.60;53.00
76878;DHT22;65843;50.692;12.844;2024-03-08T04:20:05;21.60;52.90
76878;DHT22;65843;50.692;12.844;2024-03-08T04:21:10;21.60;53.00
76878;DHT22;65843;50.692;12.844;2024-03-08T04:22:11;21.60;52.50
76878;DHT22;65843;50.692;12.844;2024-03-08T04:23:12;21.60;52.20
76878;DHT22;65843;50.692;12.844;2024-03-08T04:24:13;21.60;52.10
76878;DHT22;65843;50.692;12.844;2024-03-08T04:25:14;21.60;52.30
76878;DHT22;65843;50.692;12.844;2024-03-08T04:26:15;21.60;52.20
76878;DHT22;65843;50.692;12.844;2024-03-08T04:27:16;21.50;52.20
76878;DHT22;65843;50.692;12.844;2024-03-08T04:28:17;21.50;52.10
76878;DHT22;65843;50.692;12.844;2024-03-08T04:29:18;21.50;52.10
76878;DHT22;65843;50.692;12.844;2024-03-08T04:30:19;21.50;52.30
76878;DHT22;65843;50.692;12.844;2024-03-08T04:31:21;21.50;52.30
76878;DHT22;65843;50.692;12.844;2024-03-08T04:32:22;21.50;51.80
76878;DHT22;65843;50.692;12.844;2024-03-08T04:33:23;21.50;52.10
76878;DHT22;65843;50.692;12.844;2024-03-08T04:34:24;21.50;52.10
76878;DHT22;65843;50.692;12.844;2024-03-08T04:35:25;21.50;51.90
76878;DHT22;65843;50.692;12.844;2024-03-08T04:36:26;21.50;51.80
76878;DHT22;65843;50.692;12.844;2024-03-08T04:37:27;21.40;52.00
76878;DHT22;65843;50.692;12.844;2024-03-08T04:38:30;21.40;51.90
76878;DHT22;65843;50.692;12.844;2024-03-08T04:39:31;21.40;51.80
76878;DHT22;65843;50.692;12.844;2024-03-08T04:40:32;21.40;51.90
76878;DHT22;65843;50.692;12.844;2024-03-08T04:41:33;21.40;51.70
76878;DHT22;65843;50.692;12.844;2024-03-08T04:42:34;21.40;51.60
76878;DHT22;65843;50.692;12.844;2024-03-08T04:43:37;21.40;51.70
76878;DHT22;65843;50.692;12.844;2024-03-08T04:44:38;21.40;51.90
76878;DHT22;65843;50.692;12.844;2024-03-08T04:45:39;21.40;51.70
76878;DHT22;65843;50.692;12.844;2024-03-08T04:46:40;21.40;51.60
76878;DHT22;65843;50.692;12.844;2024-03-08T04:47:41;21.40;51.60
76878;DHT22;65843;50.692;12.844;2024-03-08T04:48:42;21.40;51.70
76878;DHT22;65843;50.692;12.844;2024-03-08T04:49:43;21.40;51.60
76878;DHT22;65843;50.692;12.844;2024-03-08T04:50:44;21.40;51.50
76878;DHT22;65843;50.692;12.844;2024-03-08T04:51:45;21.40;51.30
76878;DHT22;65843;50.692;12.844;2024-03-08T04:52:46;21.30;51.50
76878;DHT22;65843;50.692;12.844;2024-03-08T04:53:48;21.30;51.40
76878;DHT22;65843;50.692;12.844;2024-03-08T04:54:49;21.30;51.30
76878;DHT22;65843;50.692;12.844;2024-03-08T04:55:50;21.30;51.40
76878;DHT22;65843;50.692;12.844;2024-03-08T04:56:50;21.30;51.40
76878;DHT22;65843;50.692;12.844;2024-03-08T04:57:51;21.30;51.30
76878;DHT22;65843;50.692;12.844;2024-03-08T04:58:53;21.30;51.40
76878;DHT22;65843;50.692;12.844;2024-03-08T04:59:54;21.30;51.30
76878;DHT22;65843;50.692;12.844;2024-03-08T05:00:55;21.30;51.20
76878;DHT22;65843;50.692;12.844;2024-03-08T05:01:56;21.30;51.40
76878;DHT22;65843;50.692;12.844;2024-03-08T05:02:57;21.30;51.30
76878;DHT22;65843;50.692;12.844;2024-03-08T05:03:58;21.30;51.20
76878;DHT22;65843;50.692;12.844;2024-03-08T05:04:59;21.30;51.20
76878;DHT22;65843;50.692;12.844;2024-03-08T05:06:01;21.30;51.20
76878;DHT22;65843;50.692;12.844;2024-03-08T05:07:02;21.30;51.20
76878;DHT22;65843;50.692;12.844;2024-03-08T05:08:03;21.30;51.10
76878;DHT22;65843;50.692;12.844;2024-03-08T05:09:04;21.30;51.00
76878;DHT22;65843;50.692;12.844;2024-03-08T05:10:14;21.20;51.20
76878;DHT22;65843;50.692;12.844;2024-03-08T05:11:18;21.20;51.10
76878;DHT22;65843;50.692;12.844;2024-03-08T05:12:18;21.20;51.20
76878;DHT22;65843;50.692;12.844;2024-03-08T05:13:19;21.20;50.40
76878;DHT22;65843;50.692;12.844;2024-03-08T05:14:20;21.30;50.50
76878;DHT22;65843;50.692;12.844;2024-03-08T05:15:21;21.30;50.10
76878;DHT22;65843;50.692;12.844;2024-03-08T05:16:22;21.30;49.80
76878;DHT22;65843;50.692;12.844;2024-03-08T05:17:23;21.30;49.70
76878;DHT22;65843;50.692;12.844;2024-03-08T05:18:24;21.30;49.30
76878;DHT22;65843;50.692;12.844;2024-03-08T05:19:25;21.30;48.90
76878;DHT22;65843;50.692;12.844;2024-03-08T05:20:26;21.30;48.80
76878;DHT22;65843;50.692;12.844;2024-03-08T05:21:27;21.30;48.80
76878;DHT22;65843;50.692;12.844;2024-03-08T05:22:29;21.30;48.90
76878;DHT22;65843;50.692;12.844;2024-03-08T05:23:30;21.30;50.50
76878;DHT22;65843;50.692;12.844;2024-03-08T05:24:32;21.30;51.30
76878;DHT22;65843;50.692;12.844;2024-03-08T05:25:33;21.40;51.20
76878;DHT22;65843;50.692;12.844;2024-03-08T05:26:34;21.40;51.20
76878;DHT22;65843;50.692;12.844;2024-03-08T05:27:36;21.50;52.00
76878;DHT22;65843;50.692;12.844;2024-03-08T05:28:37;21.50;51.60
76878;DHT22;65843;50.692;12.844;2024-03-08T05:29:37;21.50;50.90
76878;DHT22;65843;50.692;12.844;2024-03-08T05:30:38;21.50;50.30
76878;DHT22;65843;50.692;12.844;2024-03-08T05:31:46;21.50;49.60
76878;DHT22;65843;50.692;12.844;2024-03-08T05:32:47;21.50;49.20
76878;DHT22;65843;50.692;12.844;2024-03-08T05:33:48;21.60;48.90
76878;DHT22;65843;50.692;12.844;2024-03-08T05:34:49;21.60;48.60
76878;DHT22;65843;50.692;12.844;2024-03-08T05:35:50;21.60;48.70
76878;DHT22;65843;50.692;12.844;2024-03-08T05:36:52;21.60;48.80
76878;DHT22;65843;50.692;12.844;2024-03-08T05:37:55;21.60;48.80
76878;DHT22;65843;50.692;12.844;2024-03-08T05:38:56;21.60;48.70
76878;DHT22;65843;50.692;12.844;2024-03-08T05:39:56;21.70;48.60
76878;DHT22;65843;50.692;12.844;2024-03-08T05:40:57;21.70;48.40
76878;DHT22;65843;50.692;12.844;2024-03-08T05:41:58;21.70;48.40
76878;DHT22;65843;50.692;12.844;2024-03-08T05:42:59;21.70;48.30
76878;DHT22;65843;50.692;12.844;2024-03-08T05:44:00;21.70;48.20
76878;DHT22;65843;50.692;12.844;2024-03-08T05:45:01;21.70;48.00
76878;DHT22;65843;50.692;12.844;2024-03-08T05:46:02;21.70;48.10
76878;DHT22;65843;50.692;12.844;2024-03-08T05:47:05;21.70;48.30
76878;DHT22;65843;50.692;12.844;2024-03-08T05:48:07;21.70;48.20
76878;DHT22;65843;50.692;12.844;2024-03-08T05:49:08;21.70;48.30
76878;DHT22;65843;50.692;12.844;2024-03-08T05:50:10;21.70;48.20
76878;DHT22;65843;50.692;12.844;2024-03-08T05:51:12;21.70;48.20
76878;DHT22;65843;50.692;12.844;2024-03-08T05:52:13;21.70;48.20
76878;DHT22;65843;50.692;12.844;2024-03-08T05:53:14;21.70;48.30
76878;DHT22;65843;50.692;12.844;2024-03-08T05:54:15;21.60;48.40
76878;DHT22;65843;50.692;12.844;2024-03-08T05:55:16;21.60;48.30
76878;DHT22;65843;50.692;12.844;2024-03-08T05:56:17;21.50;48.30
76878;DHT22;65843;50.692;12.844;2024-03-08T05:57:18;21.50;48.50
76878;DHT22;65843;50.692;12.844;2024-03-08T05:58:19;21.50;48.50
76878;DHT22;65843;50.692;12.844;2024-03-08T05:59:20;21.50;48.60
76878;DHT22;65843;50.692;12.844;2024-03-08T06:00:21;21.50;48.50
76878;DHT22;65843;50.692;12.844;2024-03-08T06:01:22;21.50;48.40
76878;DHT22;65843;50.692;12.844;2024-03-08T06:02:23;21.40;48.50
76878;DHT22;65843;50.692;12.844;2024-03-08T06:03:24;21.40;48.40
76878;DHT22;65843;50.692;12.844;2024-03-08T06:04:25;21.40;48.00
76878;DHT22;65843;50.692;12.844;2024-03-08T06:05:26;21.40;48.20
76878;DHT22;65843;50.692;12.844;2024-03-08T06:06:27;21.40;48.00
76878;DHT22;65843;50.692;12.844;2024-03-08T06:07:28;21.40;48.10
76878;DHT22;65843;50.692;12.844;2024-03-08T06:08:29;21.40;47.70
76878;DHT22;65843;50.692;12.844;2024-03-08T06:09:31;21.30;48.10
76878;DHT22;65843;50.692;12.844;2024-03-08T06:10:32;21.30;47.90
76878;DHT22;65843;50.692;12.844;2024-03-08T06:11:32;21.30;47.70
76878;DHT22;65843;50.692;12.844;2024-03-08T06:12:33;21.30;47.70
76878;DHT22;65843;50.692;12.844;2024-03-08T06:13:40;21.30;47.70
76878;DHT22;65843;50.692;12.844;2024-03-08T06:14:41;21.30;47.80
76878;DHT22;65843;50.692;12.844;2024-03-08T06:15:42;21.30;47.70
76878;DHT22;65843;50.692;12.844;2024-03-08T06:16:43;21.30;47.50
76878;DHT22;65843;50.692;12.844;2024-03-08T06:17:43;21.30;47.60
76878;DHT22;65843;50.692;12.844;2024-03-08T06:18:44;21.30;47.60
76878;DHT22;65843;50.692;12.844;2024-03-08T06:19:47;21.30;47.50
76878;DHT22;65843;50.692;12.844;2024-03-08T06:20:48;21.30;47.60
76878;DHT22;65843;50.692;12.844;2024-03-08T06:21:49;21.30;47.50